sensor_id;sensor_type;location;lat;lon;timestamp;P1;durP1;ratioP1;P2;durP2;ratioP2
6860;SDS011;3469;47.060;15.460;2022-08-20T00:00:55;11.70;;;5.67;;
6860;SDS011;3469;47.060;15.460;2022-08-20T00:03:29;9.60;;;5.93;;
6860;SDS011;3469;47.060;15.460;2022-08-20T00:06:00;10.30;;;6.40;;
6860;SDS011;3469;47.060;15.460;2022-08-20T00:08:31;13.30;;;5.93;;
6860;SDS011;3469;47.060;15.460;2022-08-20T00:10:59;13.10;;;5.67;;
6860;SDS011;3469;47.060;15.460;2022-08-20T00:13:32;9.60;;;6.20;;
6860;SDS011;3469;47.060;15.460;2022-08-20T00:16:02;6.20;;;5.40;;
6860;SDS011;3469;47.060;15.460;2022-08-20T00:18:30;9.87;;;5.67;;
6860;SDS011;3469;47.060;15.460;2022-08-20T00:20:59;9.97;;;5.80;;
6860;SDS011;3469;47.060;15.460;2022-08-20T00:23:27;10.87;;;6.27;;
6860;SDS011;3469;47.060;15.460;2022-08-20T00:25:55;7.63;;;5.10;;
6860;SDS011;3469;47.060;15.460;2022-08-20T00:28:24;12.23;;;5.90;;
6860;SDS011;3469;47.060;15.460;2022-08-20T00:30:53;11.37;;;6.20;;
6860;SDS011;3469;47.060;15.460;2022-08-20T00:33:22;11.83;;;5.77;;
6860;SDS011;3469;47.060;15.460;2022-08-20T00:35:51;9.67;;;5.30;;
6860;SDS011;3469;47.060;15.460;2022-08-20T00:38:22;8.67;;;5.73;;
6860;SDS011;3469;47.060;15.460;2022-08-20T00:40:52;12.10;;;6.00;;
6860;SDS011;3469;47.060;15.460;2022-08-20T00:43:28;10.03;;;5.60;;
6860;SDS011;3469;47.060;15.460;2022-08-20T00:46:04;10.80;;;6.30;;
6860;SDS011;3469;47.060;15.460;2022-08-20T00:48:34;11.40;;;6.50;;
6860;SDS011;3469;47.060;15.460;2022-08-20T00:51:06;12.07;;;6.10;;
6860;SDS011;3469;47.060;15.460;2022-08-20T00:53:36;8.50;;;5.60;;
6860;SDS011;3469;47.060;15.460;2022-08-20T00:56:05;10.20;;;6.00;;
6860;SDS011;3469;47.060;15.460;2022-08-20T00:58:34;8.43;;;5.90;;
6860;SDS011;3469;47.060;15.460;2022-08-20T01:01:04;9.43;;;6.17;;
6860;SDS011;3469;47.060;15.460;2022-08-20T01:03:33;10.00;;;6.30;;
6860;SDS011;3469;47.060;15.460;2022-08-20T01:06:01;9.50;;;5.73;;
6860;SDS011;3469;47.060;15.460;2022-08-20T01:08:30;6.03;;;4.90;;
6860;SDS011;3469;47.060;15.460;2022-08-20T01:10:58;8.10;;;6.63;;
6860;SDS011;3469;47.060;15.460;2022-08-20T01:13:36;11.00;;;5.90;;
6860;SDS011;3469;47.060;15.460;2022-08-20T01:16:08;8.57;;;6.53;;
6860;SDS011;3469;47.060;15.460;2022-08-20T01:18:43;8.90;;;5.63;;
6860;SDS011;3469;47.060;15.460;2022-08-20T01:21:14;8.10;;;6.50;;
6860;SDS011;3469;47.060;15.460;2022-08-20T01:23:47;8.23;;;6.10;;
6860;SDS011;3469;47.060;15.460;2022-08-20T01:26:21;10.00;;;6.23;;
6860;SDS011;3469;47.060;15.460;2022-08-20T01:28:53;14.80;;;6.60;;
6860;SDS011;3469;47.060;15.460;2022-08-20T01:31:23;6.23;;;5.03;;
6860;SDS011;3469;47.060;15.460;2022-08-20T01:33:53;10.33;;;6.10;;
6860;SDS011;3469;47.060;15.460;2022-08-20T01:36:24;9.23;;;6.30;;
6860;SDS011;3469;47.060;15.460;2022-08-20T01:38:56;8.77;;;5.90;;
6860;SDS011;3469;47.060;15.460;2022-08-20T01:41:29;9.80;;;6.03;;
6860;SDS011;3469;47.060;15.460;2022-08-20T01:44:03;8.57;;;5.27;;
6860;SDS011;3469;47.060;15.460;2022-08-20T01:46:36;19.00;;;5.63;;
6860;SDS011;3469;47.060;15.460;2022-08-20T01:49:10;15.43;;;6.53;;
6860;SDS011;3469;47.060;15.460;2022-08-20T01:51:49;10.80;;;6.60;;
6860;SDS011;3469;47.060;15.460;2022-08-20T01:54:18;13.50;;;6.70;;
6860;SDS011;3469;47.060;15.460;2022-08-20T01:56:53;8.60;;;5.23;;
6860;SDS011;3469;47.060;15.460;2022-08-20T01:59:23;7.73;;;6.40;;
6860;SDS011;3469;47.060;15.460;2022-08-20T02:01:51;10.90;;;5.80;;
6860;SDS011;3469;47.060;15.460;2022-08-20T02:04:21;9.00;;;4.77;;
6860;SDS011;3469;47.060;15.460;2022-08-20T02:06:50;8.43;;;6.23;;
6860;SDS011;3469;47.060;15.460;2022-08-20T02:09:24;8.10;;;5.37;;
6860;SDS011;3469;47.060;15.460;2022-08-20T02:11:55;11.27;;;5.97;;
6860;SDS011;3469;47.060;15.460;2022-08-20T02:14:24;7.40;;;5.20;;
6860;SDS011;3469;47.060;15.460;2022-08-20T02:16:53;8.43;;;6.63;;
6860;SDS011;3469;47.060;15.460;2022-08-20T02:19:26;9.07;;;6.33;;
6860;SDS011;3469;47.060;15.460;2022-08-20T02:21:58;8.30;;;6.10;;
6860;SDS011;3469;47.060;15.460;2022-08-20T02:24:28;15.07;;;6.00;;
6860;SDS011;3469;47.060;15.460;2022-08-20T02:26:58;8.30;;;6.00;;
6860;SDS011;3469;47.060;15.460;2022-08-20T02:29:27;10.47;;;6.30;;
6860;SDS011;3469;47.060;15.460;2022-08-20T02:31:55;11.77;;;6.73;;
6860;SDS011;3469;47.060;15.460;2022-08-20T02:34:43;7.37;;;5.23;;
6860;SDS011;3469;47.060;15.460;2022-08-20T02:37:12;10.20;;;6.43;;
6860;SDS011;3469;47.060;15.460;2022-08-20T02:39:44;6.67;;;5.80;;
6860;SDS011;3469;47.060;15.460;2022-08-20T02:42:13;9.53;;;6.00;;
6860;SDS011;3469;47.060;15.460;2022-08-20T02:44:42;8.17;;;5.30;;
6860;SDS011;3469;47.060;15.460;2022-08-20T02:47:10;9.63;;;5.70;;
6860;SDS011;3469;47.060;15.460;2022-08-20T02:49:39;7.93;;;6.00;;
6860;SDS011;3469;47.060;15.460;2022-08-20T02:52:07;8.73;;;5.93;;
6860;SDS011;3469;47.060;15.460;2022-08-20T02:54:35;6.47;;;5.30;;
6860;SDS011;3469;47.060;15.460;2022-08-20T02:57:04;7.73;;;4.40;;
6860;SDS011;3469;47.060;15.460;2022-08-20T02:59:33;5.80;;;5.20;;
6860;SDS011;3469;47.060;15.460;2022-08-20T03:02:02;10.40;;;5.80;;
6860;SDS011;3469;47.060;15.460;2022-08-20T03:04:30;11.37;;;5.57;;
6860;SDS011;3469;47.060;15.460;2022-08-20T03:06:58;6.20;;;5.10;;
6860;SDS011;3469;47.060;15.460;2022-08-20T03:09:26;7.20;;;5.70;;
6860;SDS011;3469;47.060;15.460;2022-08-20T03:11:54;7.23;;;5.57;;
6860;SDS011;3469;47.060;15.460;2022-08-20T03:14:23;10.07;;;5.10;;
6860;SDS011;3469;47.060;15.460;2022-08-20T03:16:53;10.50;;;6.90;;
6860;SDS011;3469;47.060;15.460;2022-08-20T03:19:21;10.27;;;6.00;;
6860;SDS011;3469;47.060;15.460;2022-08-20T03:21:49;9.73;;;6.50;;
6860;SDS011;3469;47.060;15.460;2022-08-20T03:24:18;8.10;;;6.17;;
6860;SDS011;3469;47.060;15.460;2022-08-20T03:26:46;8.97;;;5.97;;
6860;SDS011;3469;47.060;15.460;2022-08-20T03:29:15;12.67;;;5.70;;
6860;SDS011;3469;47.060;15.460;2022-08-20T03:31:44;9.00;;;6.20;;
6860;SDS011;3469;47.060;15.460;2022-08-20T03:34:13;14.17;;;6.57;;
6860;SDS011;3469;47.060;15.460;2022-08-20T03:36:41;7.63;;;5.10;;
6860;SDS011;3469;47.060;15.460;2022-08-20T03:39:10;10.77;;;6.07;;
6860;SDS011;3469;47.060;15.460;2022-08-20T03:41:39;9.97;;;5.53;;
6860;SDS011;3469;47.060;15.460;2022-08-20T03:44:07;8.87;;;5.80;;
6860;SDS011;3469;47.060;15.460;2022-08-20T03:46:35;11.50;;;5.80;;
6860;SDS011;3469;47.060;15.460;2022-08-20T03:49:04;14.33;;;7.00;;
6860;SDS011;3469;47.060;15.460;2022-08-20T03:51:34;10.53;;;6.30;;
6860;SDS011;3469;47.060;15.460;2022-08-20T03:54:22;14.87;;;6.50;;
6860;SDS011;3469;47.060;15.460;2022-08-20T03:56:58;10.40;;;6.33;;
6860;SDS011;3469;47.060;15.460;2022-08-20T03:59:27;8.83;;;6.20;;
6860;SDS011;3469;47.060;15.460;2022-08-20T04:01:58;8.70;;;6.30;;
6860;SDS011;3469;47.060;15.460;2022-08-20T04:04:27;14.33;;;6.47;;
6860;SDS011;3469;47.060;15.460;2022-08-20T04:06:57;16.23;;;6.90;;
6860;SDS011;3469;47.060;15.460;2022-08-20T04:09:25;10.37;;;6.60;;
6860;SDS011;3469;47.060;15.460;2022-08-20T04:11:54;12.90;;;6.13;;
6860;SDS011;3469;47.060;15.460;2022-08-20T04:14:24;11.90;;;6.20;;
6860;SDS011;3469;47.060;15.460;2022-08-20T04:16:54;11.33;;;6.80;;
6860;SDS011;3469;47.060;15.460;2022-08-20T04:19:23;15.40;;;7.20;;
6860;SDS011;3469;47.060;15.460;2022-08-20T04:21:58;11.13;;;6.40;;
6860;SDS011;3469;47.060;15.460;2022-08-20T04:24:26;10.73;;;5.37;;
6860;SDS011;3469;47.060;15.460;2022-08-20T04:26:58;11.53;;;5.87;;
6860;SDS011;3469;47.060;15.460;2022-08-20T04:29:28;9.07;;;6.10;;
6860;SDS011;3469;47.060;15.460;2022-08-20T04:32:01;11.70;;;5.80;;
6860;SDS011;3469;47.060;15.460;2022-08-20T04:34:32;11.70;;;6.23;;
6860;SDS011;3469;47.060;15.460;2022-08-20T04:37:03;10.23;;;7.03;;
6860;SDS011;3469;47.060;15.460;2022-08-20T04:39:42;11.33;;;5.93;;
6860;SDS011;3469;47.060;15.460;2022-08-20T04:42:11;11.73;;;6.20;;
6860;SDS011;3469;47.060;15.460;2022-08-20T04:44:39;11.53;;;6.43;;
6860;SDS011;3469;47.060;15.460;2022-08-20T04:47:07;10.17;;;5.93;;
6860;SDS011;3469;47.060;15.460;2022-08-20T04:49:37;8.97;;;6.10;;
6860;SDS011;3469;47.060;15.460;2022-08-20T04:52:07;9.67;;;6.10;;
6860;SDS011;3469;47.060;15.460;2022-08-20T04:54:37;10.80;;;6.10;;
6860;SDS011;3469;47.060;15.460;2022-08-20T04:57:05;9.63;;;5.87;;
6860;SDS011;3469;47.060;15.460;2022-08-20T04:59:34;7.53;;;5.40;;
6860;SDS011;3469;47.060;15.460;2022-08-20T05:02:03;8.97;;;5.73;;
6860;SDS011;3469;47.060;15.460;2022-08-20T05:04:31;12.30;;;6.50;;
6860;SDS011;3469;47.060;15.460;2022-08-20T05:06:59;8.00;;;5.30;;
6860;SDS011;3469;47.060;15.460;2022-08-20T05:09:29;14.50;;;7.53;;
6860;SDS011;3469;47.060;15.460;2022-08-20T05:12:09;6.63;;;5.30;;
6860;SDS011;3469;47.060;15.460;2022-08-20T05:14:41;17.27;;;5.10;;
6860;SDS011;3469;47.060;15.460;2022-08-20T05:17:10;7.37;;;5.00;;
6860;SDS011;3469;47.060;15.460;2022-08-20T05:19:41;10.17;;;5.13;;
6860;SDS011;3469;47.060;15.460;2022-08-20T05:22:09;6.13;;;5.50;;
6860;SDS011;3469;47.060;15.460;2022-08-20T05:24:38;8.50;;;5.43;;
6860;SDS011;3469;47.060;15.460;2022-08-20T05:27:07;8.73;;;5.87;;
6860;SDS011;3469;47.060;15.460;2022-08-20T05:29:50;10.00;;;4.80;;
6860;SDS011;3469;47.060;15.460;2022-08-20T05:32:19;11.53;;;5.37;;
6860;SDS011;3469;47.060;15.460;2022-08-20T05:34:50;9.17;;;4.80;;
6860;SDS011;3469;47.060;15.460;2022-08-20T05:37:20;6.60;;;4.97;;
6860;SDS011;3469;47.060;15.460;2022-08-20T05:39:52;8.60;;;5.00;;
6860;SDS011;3469;47.060;15.460;2022-08-20T05:42:21;8.00;;;5.17;;
6860;SDS011;3469;47.060;15.460;2022-08-20T05:44:49;6.37;;;4.97;;
6860;SDS011;3469;47.060;15.460;2022-08-20T05:47:17;7.47;;;5.30;;
6860;SDS011;3469;47.060;15.460;2022-08-20T05:49:47;6.00;;;4.60;;
6860;SDS011;3469;47.060;15.460;2022-08-20T05:52:15;6.73;;;4.40;;
6860;SDS011;3469;47.060;15.460;2022-08-20T05:54:44;7.87;;;5.80;;
6860;SDS011;3469;47.060;15.460;2022-08-20T05:57:13;7.10;;;5.33;;
6860;SDS011;3469;47.060;15.460;2022-08-20T05:59:44;10.33;;;5.33;;
6860;SDS011;3469;47.060;15.460;2022-08-20T06:02:13;9.83;;;4.67;;
6860;SDS011;3469;47.060;15.460;2022-08-20T06:04:55;6.87;;;4.93;;
6860;SDS011;3469;47.060;15.460;2022-08-20T06:07:23;9.87;;;5.30;;
6860;SDS011;3469;47.060;15.460;2022-08-20T06:09:52;6.73;;;4.57;;
6860;SDS011;3469;47.060;15.460;2022-08-20T06:12:21;6.00;;;4.90;;
6860;SDS011;3469;47.060;15.460;2022-08-20T06:14:50;9.37;;;5.00;;
6860;SDS011;3469;47.060;15.460;2022-08-20T06:17:18;6.70;;;4.13;;
6860;SDS011;3469;47.060;15.460;2022-08-20T06:19:47;9.03;;;4.47;;
6860;SDS011;3469;47.060;15.460;2022-08-20T06:22:16;8.80;;;4.80;;
6860;SDS011;3469;47.060;15.460;2022-08-20T06:24:52;7.27;;;3.93;;
6860;SDS011;3469;47.060;15.460;2022-08-20T06:27:22;9.83;;;4.60;;
6860;SDS011;3469;47.060;15.460;2022-08-20T06:29:50;7.10;;;4.03;;
6860;SDS011;3469;47.060;15.460;2022-08-20T06:32:20;9.53;;;4.40;;
6860;SDS011;3469;47.060;15.460;2022-08-20T06:34:58;9.07;;;3.87;;
6860;SDS011;3469;47.060;15.460;2022-08-20T06:37:29;6.80;;;3.67;;
6860;SDS011;3469;47.060;15.460;2022-08-20T06:39:59;5.93;;;4.10;;
6860;SDS011;3469;47.060;15.460;2022-08-20T06:42:31;4.43;;;3.13;;
6860;SDS011;3469;47.060;15.460;2022-08-20T06:44:59;5.10;;;3.77;;
6860;SDS011;3469;47.060;15.460;2022-08-20T06:47:31;6.80;;;4.30;;
6860;SDS011;3469;47.060;15.460;2022-08-20T06:50:00;6.93;;;3.53;;
6860;SDS011;3469;47.060;15.460;2022-08-20T06:52:28;5.80;;;3.90;;
6860;SDS011;3469;47.060;15.460;2022-08-20T06:55:16;7.57;;;4.07;;
6860;SDS011;3469;47.060;15.460;2022-08-20T06:57:46;4.53;;;3.80;;
6860;SDS011;3469;47.060;15.460;2022-08-20T07:00:16;9.53;;;5.50;;
6860;SDS011;3469;47.060;15.460;2022-08-20T07:02:46;8.50;;;4.67;;
6860;SDS011;3469;47.060;15.460;2022-08-20T07:05:14;9.83;;;5.07;;
6860;SDS011;3469;47.060;15.460;2022-08-20T07:07:43;10.20;;;5.70;;
6860;SDS011;3469;47.060;15.460;2022-08-20T07:10:12;9.27;;;6.03;;
6860;SDS011;3469;47.060;15.460;2022-08-20T07:12:42;11.43;;;6.23;;
6860;SDS011;3469;47.060;15.460;2022-08-20T07:15:13;11.03;;;6.00;;
6860;SDS011;3469;47.060;15.460;2022-08-20T07:17:46;8.20;;;5.23;;
6860;SDS011;3469;47.060;15.460;2022-08-20T07:20:16;9.40;;;6.27;;
6860;SDS011;3469;47.060;15.460;2022-08-20T07:22:44;11.37;;;5.13;;
6860;SDS011;3469;47.060;15.460;2022-08-20T07:25:14;7.20;;;5.70;;
6860;SDS011;3469;47.060;15.460;2022-08-20T07:27:43;6.97;;;5.50;;
6860;SDS011;3469;47.060;15.460;2022-08-20T07:30:14;8.10;;;5.73;;
6860;SDS011;3469;47.060;15.460;2022-08-20T07:33:21;9.20;;;5.90;;
6860;SDS011;3469;47.060;15.460;2022-08-20T07:35:50;8.63;;;4.60;;
6860;SDS011;3469;47.060;15.460;2022-08-20T07:38:19;7.77;;;5.20;;
6860;SDS011;3469;47.060;15.460;2022-08-20T07:40:50;8.07;;;4.90;;
6860;SDS011;3469;47.060;15.460;2022-08-20T07:43:19;10.23;;;5.40;;
6860;SDS011;3469;47.060;15.460;2022-08-20T07:45:50;8.93;;;5.60;;
6860;SDS011;3469;47.060;15.460;2022-08-20T07:48:21;8.53;;;5.67;;
6860;SDS011;3469;47.060;15.460;2022-08-20T07:50:58;6.03;;;3.77;;
6860;SDS011;3469;47.060;15.460;2022-08-20T07:53:29;5.43;;;4.33;;
6860;SDS011;3469;47.060;15.460;2022-08-20T07:56:02;6.37;;;4.27;;
6860;SDS011;3469;47.060;15.460;2022-08-20T07:58:32;7.23;;;4.40;;
6860;SDS011;3469;47.060;15.460;2022-08-20T08:01:04;6.07;;;4.47;;
6860;SDS011;3469;47.060;15.460;2022-08-20T08:03:33;10.03;;;4.93;;
6860;SDS011;3469;47.060;15.460;2022-08-20T08:06:16;7.30;;;4.73;;
6860;SDS011;3469;47.060;15.460;2022-08-20T08:08:55;8.70;;;5.00;;
6860;SDS011;3469;47.060;15.460;2022-08-20T08:11:25;5.10;;;4.07;;
6860;SDS011;3469;47.060;15.460;2022-08-20T08:13:53;6.93;;;4.83;;
6860;SDS011;3469;47.060;15.460;2022-08-20T08:16:23;8.13;;;4.33;;
6860;SDS011;3469;47.060;15.460;2022-08-20T08:18:52;7.63;;;4.00;;
6860;SDS011;3469;47.060;15.460;2022-08-20T08:21:23;7.77;;;4.70;;
6860;SDS011;3469;47.060;15.460;2022-08-20T08:23:52;8.70;;;4.63;;
6860;SDS011;3469;47.060;15.460;2022-08-20T08:26:21;8.47;;;4.00;;
6860;SDS011;3469;47.060;15.460;2022-08-20T08:28:51;5.00;;;3.87;;
6860;SDS011;3469;47.060;15.460;2022-08-20T08:31:19;6.80;;;3.50;;
6860;SDS011;3469;47.060;15.460;2022-08-20T08:33:49;4.37;;;3.60;;
6860;SDS011;3469;47.060;15.460;2022-08-20T08:36:17;4.73;;;2.83;;
6860;SDS011;3469;47.060;15.460;2022-08-20T08:38:45;5.40;;;3.93;;
6860;SDS011;3469;47.060;15.460;2022-08-20T08:41:15;10.67;;;4.30;;
6860;SDS011;3469;47.060;15.460;2022-08-20T08:43:45;5.33;;;3.23;;
6860;SDS011;3469;47.060;15.460;2022-08-20T08:46:19;3.37;;;3.07;;
6860;SDS011;3469;47.060;15.460;2022-08-20T08:48:53;5.20;;;2.50;;
6860;SDS011;3469;47.060;15.460;2022-08-20T08:51:25;6.23;;;2.90;;
6860;SDS011;3469;47.060;15.460;2022-08-20T08:53:55;3.40;;;2.80;;
6860;SDS011;3469;47.060;15.460;2022-08-20T08:56:30;4.57;;;2.80;;
6860;SDS011;3469;47.060;15.460;2022-08-20T08:59:00;4.10;;;2.80;;
6860;SDS011;3469;47.060;15.460;2022-08-20T09:01:32;4.57;;;2.60;;
6860;SDS011;3469;47.060;15.460;2022-08-20T09:04:25;4.03;;;2.73;;
6860;SDS011;3469;47.060;15.460;2022-08-20T09:06:56;5.67;;;2.87;;
6860;SDS011;3469;47.060;15.460;2022-08-20T09:09:25;5.50;;;2.70;;
6860;SDS011;3469;47.060;15.460;2022-08-20T09:11:56;2.93;;;2.30;;
6860;SDS011;3469;47.060;15.460;2022-08-20T09:14:30;3.00;;;2.10;;
6860;SDS011;3469;47.060;15.460;2022-08-20T09:16:58;4.80;;;2.80;;
6860;SDS011;3469;47.060;15.460;2022-08-20T09:19:28;3.70;;;2.77;;
6860;SDS011;3469;47.060;15.460;2022-08-20T09:21:56;4.50;;;2.40;;
6860;SDS011;3469;47.060;15.460;2022-08-20T09:24:25;4.63;;;2.63;;
6860;SDS011;3469;47.060;15.460;2022-08-20T09:26:53;3.97;;;2.60;;
6860;SDS011;3469;47.060;15.460;2022-08-20T09:29:21;2.80;;;2.20;;
6860;SDS011;3469;47.060;15.460;2022-08-20T09:31:49;2.20;;;1.00;;
6860;SDS011;3469;47.060;15.460;2022-08-20T09:34:18;3.13;;;2.07;;
6860;SDS011;3469;47.060;15.460;2022-08-20T09:36:47;4.60;;;1.17;;
6860;SDS011;3469;47.060;15.460;2022-08-20T09:39:15;3.03;;;1.73;;
6860;SDS011;3469;47.060;15.460;2022-08-20T09:41:44;2.70;;;1.87;;
6860;SDS011;3469;47.060;15.460;2022-08-20T09:44:12;6.30;;;2.60;;
6860;SDS011;3469;47.060;15.460;2022-08-20T09:46:40;5.37;;;2.20;;
6860;SDS011;3469;47.060;15.460;2022-08-20T09:49:08;4.50;;;2.00;;
6860;SDS011;3469;47.060;15.460;2022-08-20T09:51:37;2.20;;;2.00;;
6860;SDS011;3469;47.060;15.460;2022-08-20T09:54:06;3.17;;;2.33;;
6860;SDS011;3469;47.060;15.460;2022-08-20T09:56:34;2.17;;;1.60;;
6860;SDS011;3469;47.060;15.460;2022-08-20T09:59:03;2.87;;;1.47;;
6860;SDS011;3469;47.060;15.460;2022-08-20T10:01:31;3.80;;;0.90;;
6860;SDS011;3469;47.060;15.460;2022-08-20T10:04:00;4.20;;;1.17;;
6860;SDS011;3469;47.060;15.460;2022-08-20T10:06:28;1.10;;;0.70;;
6860;SDS011;3469;47.060;15.460;2022-08-20T10:09:02;1.93;;;0.90;;
6860;SDS011;3469;47.060;15.460;2022-08-20T10:11:32;1.83;;;0.87;;
6860;SDS011;3469;47.060;15.460;2022-08-20T10:14:00;4.30;;;1.63;;
6860;SDS011;3469;47.060;15.460;2022-08-20T10:16:29;1.97;;;1.00;;
6860;SDS011;3469;47.060;15.460;2022-08-20T10:18:57;3.50;;;1.93;;
6860;SDS011;3469;47.060;15.460;2022-08-20T10:21:26;0.90;;;0.60;;
6860;SDS011;3469;47.060;15.460;2022-08-20T10:23:54;1.23;;;0.73;;
6860;SDS011;3469;47.060;15.460;2022-08-20T10:26:22;0.90;;;0.53;;
6860;SDS011;3469;47.060;15.460;2022-08-20T10:28:52;1.60;;;0.60;;
6860;SDS011;3469;47.060;15.460;2022-08-20T10:31:20;1.20;;;0.70;;
6860;SDS011;3469;47.060;15.460;2022-08-20T10:33:48;1.17;;;0.60;;
6860;SDS011;3469;47.060;15.460;2022-08-20T10:36:17;0.90;;;0.63;;
6860;SDS011;3469;47.060;15.460;2022-08-20T10:38:45;1.00;;;0.60;;
6860;SDS011;3469;47.060;15.460;2022-08-20T10:41:14;0.83;;;0.63;;
6860;SDS011;3469;47.060;15.460;2022-08-20T10:43:43;0.73;;;0.50;;
6860;SDS011;3469;47.060;15.460;2022-08-20T10:46:12;0.70;;;0.50;;
6860;SDS011;3469;47.060;15.460;2022-08-20T10:48:41;0.60;;;0.40;;
6860;SDS011;3469;47.060;15.460;2022-08-20T10:51:10;1.37;;;1.00;;
6860;SDS011;3469;47.060;15.460;2022-08-20T10:53:38;2.23;;;0.90;;
6860;SDS011;3469;47.060;15.460;2022-08-20T10:56:07;1.30;;;0.70;;
6860;SDS011;3469;47.060;15.460;2022-08-20T10:58:41;1.13;;;0.70;;
6860;SDS011;3469;47.060;15.460;2022-08-20T11:01:10;1.50;;;1.00;;
6860;SDS011;3469;47.060;15.460;2022-08-20T11:03:58;1.13;;;0.67;;
6860;SDS011;3469;47.060;15.460;2022-08-20T11:06:27;0.90;;;0.80;;
6860;SDS011;3469;47.060;15.460;2022-08-20T11:08:55;1.30;;;0.70;;
6860;SDS011;3469;47.060;15.460;2022-08-20T11:11:23;2.67;;;0.97;;
6860;SDS011;3469;47.060;15.460;2022-08-20T11:13:51;1.20;;;0.90;;
6860;SDS011;3469;47.060;15.460;2022-08-20T11:16:21;1.00;;;0.83;;
6860;SDS011;3469;47.060;15.460;2022-08-20T11:18:50;1.23;;;0.93;;
6860;SDS011;3469;47.060;15.460;2022-08-20T11:21:19;0.60;;;0.50;;
6860;SDS011;3469;47.060;15.460;2022-08-20T11:23:48;2.40;;;1.17;;
6860;SDS011;3469;47.060;15.460;2022-08-20T11:26:17;1.10;;;0.73;;
6860;SDS011;3469;47.060;15.460;2022-08-20T11:28:48;1.13;;;0.77;;
6860;SDS011;3469;47.060;15.460;2022-08-20T11:31:16;3.70;;;1.27;;
6860;SDS011;3469;47.060;15.460;2022-08-20T11:33:44;1.20;;;0.90;;
6860;SDS011;3469;47.060;15.460;2022-08-20T11:36:12;1.50;;;0.77;;
6860;SDS011;3469;47.060;15.460;2022-08-20T11:38:42;1.47;;;0.70;;
6860;SDS011;3469;47.060;15.460;2022-08-20T11:41:10;6.30;;;1.40;;
6860;SDS011;3469;47.060;15.460;2022-08-20T11:43:38;1.53;;;1.00;;
6860;SDS011;3469;47.060;15.460;2022-08-20T11:46:07;1.00;;;0.80;;
6860;SDS011;3469;47.060;15.460;2022-08-20T11:48:35;1.23;;;1.00;;
6860;SDS011;3469;47.060;15.460;2022-08-20T11:51:03;1.87;;;0.80;;
6860;SDS011;3469;47.060;15.460;2022-08-20T11:53:31;3.17;;;1.47;;
6860;SDS011;3469;47.060;15.460;2022-08-20T11:56:05;6.70;;;2.60;;
6860;SDS011;3469;47.060;15.460;2022-08-20T11:58:38;1.83;;;1.20;;
6860;SDS011;3469;47.060;15.460;2022-08-20T12:01:07;2.10;;;1.47;;
6860;SDS011;3469;47.060;15.460;2022-08-20T12:03:35;2.00;;;1.53;;
6860;SDS011;3469;47.060;15.460;2022-08-20T12:06:04;2.93;;;1.70;;
6860;SDS011;3469;47.060;15.460;2022-08-20T12:08:32;3.50;;;1.20;;
6860;SDS011;3469;47.060;15.460;2022-08-20T12:11:01;4.13;;;1.57;;
6860;SDS011;3469;47.060;15.460;2022-08-20T12:13:32;4.90;;;1.67;;
6860;SDS011;3469;47.060;15.460;2022-08-20T12:16:14;3.33;;;1.60;;
6860;SDS011;3469;47.060;15.460;2022-08-20T12:18:43;2.40;;;1.40;;
6860;SDS011;3469;47.060;15.460;2022-08-20T12:21:12;2.53;;;1.70;;
6860;SDS011;3469;47.060;15.460;2022-08-20T12:23:40;2.70;;;1.33;;
6860;SDS011;3469;47.060;15.460;2022-08-20T12:26:08;1.60;;;1.40;;
6860;SDS011;3469;47.060;15.460;2022-08-20T12:28:39;1.50;;;1.37;;
6860;SDS011;3469;47.060;15.460;2022-08-20T12:31:08;3.20;;;1.50;;
6860;SDS011;3469;47.060;15.460;2022-08-20T12:33:37;3.37;;;1.67;;
6860;SDS011;3469;47.060;15.460;2022-08-20T12:36:05;2.70;;;1.63;;
6860;SDS011;3469;47.060;15.460;2022-08-20T12:38:34;3.07;;;1.53;;
6860;SDS011;3469;47.060;15.460;2022-08-20T12:41:02;3.70;;;1.47;;
6860;SDS011;3469;47.060;15.460;2022-08-20T12:43:31;2.77;;;1.60;;
6860;SDS011;3469;47.060;15.460;2022-08-20T12:46:00;1.70;;;1.20;;
6860;SDS011;3469;47.060;15.460;2022-08-20T12:48:29;4.83;;;1.57;;
6860;SDS011;3469;47.060;15.460;2022-08-20T12:50:57;2.73;;;1.70;;
6860;SDS011;3469;47.060;15.460;2022-08-20T12:53:26;3.00;;;1.50;;
6860;SDS011;3469;47.060;15.460;2022-08-20T12:55:54;2.87;;;1.80;;
6860;SDS011;3469;47.060;15.460;2022-08-20T12:58:23;1.80;;;1.40;;
6860;SDS011;3469;47.060;15.460;2022-08-20T13:00:51;2.47;;;1.60;;
6860;SDS011;3469;47.060;15.460;2022-08-20T13:03:24;8.30;;;1.77;;
6860;SDS011;3469;47.060;15.460;2022-08-20T13:05:59;3.13;;;1.50;;
6860;SDS011;3469;47.060;15.460;2022-08-20T13:08:27;2.07;;;1.50;;
6860;SDS011;3469;47.060;15.460;2022-08-20T13:10:57;2.57;;;1.90;;
6860;SDS011;3469;47.060;15.460;2022-08-20T13:13:27;2.53;;;1.73;;
6860;SDS011;3469;47.060;15.460;2022-08-20T13:16:00;5.90;;;1.70;;
6860;SDS011;3469;47.060;15.460;2022-08-20T13:18:30;2.30;;;1.70;;
6860;SDS011;3469;47.060;15.460;2022-08-20T13:20:58;2.80;;;1.30;;
6860;SDS011;3469;47.060;15.460;2022-08-20T13:23:27;2.47;;;1.90;;
6860;SDS011;3469;47.060;15.460;2022-08-20T13:25:56;2.90;;;1.70;;
6860;SDS011;3469;47.060;15.460;2022-08-20T13:28:24;4.33;;;1.90;;
6860;SDS011;3469;47.060;15.460;2022-08-20T13:30:53;1.77;;;1.37;;
6860;SDS011;3469;47.060;15.460;2022-08-20T13:33:21;5.33;;;1.87;;
6860;SDS011;3469;47.060;15.460;2022-08-20T13:35:51;3.20;;;1.50;;
6860;SDS011;3469;47.060;15.460;2022-08-20T13:38:21;4.00;;;1.90;;
6860;SDS011;3469;47.060;15.460;2022-08-20T13:40:50;2.60;;;1.83;;
6860;SDS011;3469;47.060;15.460;2022-08-20T13:43:19;1.70;;;1.23;;
6860;SDS011;3469;47.060;15.460;2022-08-20T13:45:47;4.70;;;2.60;;
6860;SDS011;3469;47.060;15.460;2022-08-20T13:48:15;2.27;;;1.63;;
6860;SDS011;3469;47.060;15.460;2022-08-20T13:50:44;2.47;;;1.77;;
6860;SDS011;3469;47.060;15.460;2022-08-20T13:53:14;3.00;;;1.23;;
6860;SDS011;3469;47.060;15.460;2022-08-20T13:55:43;2.03;;;1.47;;
6860;SDS011;3469;47.060;15.460;2022-08-20T13:58:12;3.97;;;1.80;;
6860;SDS011;3469;47.060;15.460;2022-08-20T14:00:40;3.40;;;1.80;;
6860;SDS011;3469;47.060;15.460;2022-08-20T14:03:09;3.67;;;1.60;;
6860;SDS011;3469;47.060;15.460;2022-08-20T14:05:39;4.70;;;1.97;;
6860;SDS011;3469;47.060;15.460;2022-08-20T14:08:13;1.90;;;1.47;;
6860;SDS011;3469;47.060;15.460;2022-08-20T14:10:44;2.37;;;1.50;;
6860;SDS011;3469;47.060;15.460;2022-08-20T14:13:18;1.13;;;0.70;;
6860;SDS011;3469;47.060;15.460;2022-08-20T14:15:47;0.70;;;0.40;;
6860;SDS011;3469;47.060;15.460;2022-08-20T14:18:15;2.00;;;0.30;;
6860;SDS011;3469;47.060;15.460;2022-08-20T14:20:44;0.60;;;0.30;;
6860;SDS011;3469;47.060;15.460;2022-08-20T14:23:12;0.70;;;0.30;;
6860;SDS011;3469;47.060;15.460;2022-08-20T14:25:43;0.60;;;0.30;;
6860;SDS011;3469;47.060;15.460;2022-08-20T14:28:12;1.37;;;0.40;;
6860;SDS011;3469;47.060;15.460;2022-08-20T14:30:44;1.03;;;0.40;;
6860;SDS011;3469;47.060;15.460;2022-08-20T14:33:19;0.60;;;0.33;;
6860;SDS011;3469;47.060;15.460;2022-08-20T14:35:48;0.80;;;0.40;;
6860;SDS011;3469;47.060;15.460;2022-08-20T14:38:17;0.70;;;0.40;;
6860;SDS011;3469;47.060;15.460;2022-08-20T14:40:46;0.70;;;0.50;;
6860;SDS011;3469;47.060;15.460;2022-08-20T14:43:16;0.60;;;0.30;;
6860;SDS011;3469;47.060;15.460;2022-08-20T14:45:44;0.80;;;0.40;;
6860;SDS011;3469;47.060;15.460;2022-08-20T14:48:12;0.67;;;0.40;;
6860;SDS011;3469;47.060;15.460;2022-08-20T14:50:41;1.13;;;0.40;;
6860;SDS011;3469;47.060;15.460;2022-08-20T14:53:09;0.90;;;0.50;;
6860;SDS011;3469;47.060;15.460;2022-08-20T14:55:39;0.60;;;0.30;;
6860;SDS011;3469;47.060;15.460;2022-08-20T14:58:08;0.60;;;0.30;;
6860;SDS011;3469;47.060;15.460;2022-08-20T15:00:37;0.80;;;0.40;;
6860;SDS011;3469;47.060;15.460;2022-08-20T15:03:06;0.60;;;0.37;;
6860;SDS011;3469;47.060;15.460;2022-08-20T15:05:34;0.77;;;0.43;;
6860;SDS011;3469;47.060;15.460;2022-08-20T15:08:05;0.90;;;0.50;;
6860;SDS011;3469;47.060;15.460;2022-08-20T15:10:36;1.37;;;0.40;;
6860;SDS011;3469;47.060;15.460;2022-08-20T15:13:06;0.83;;;0.53;;
6860;SDS011;3469;47.060;15.460;2022-08-20T15:15:35;0.77;;;0.40;;